Time,TemperatureF,DewpointF,PressureIn,WindDirection,WindDirectionDegrees,WindSpeedMPH,WindSpeedGustMPH,Humidity,HourlyPrecipIn,Conditions,Clouds,dailyrainin,SoftwareType,DateUTC
2013-04-29 03:00:00,59.0,-99.9,-100.00,SE,137,3.0,-999.0,-999,-99.99,,,-99.99,,2013-04-29 09:00:00,
2013-04-29 03:53:00,59.0,-99.9,-100.00,SE,137,3.0,-999.0,-999,-99.99,,,-99.99,,2013-04-29 09:53:00,
2013-04-29 04:00:00,57.0,-99.9,-100.00,SSE,165,4.0,-999.0,-999,-99.99,,,-99.99,,2013-04-29 10:00:00,
2013-04-29 04:53:00,57.0,-99.9,-100.00,SSE,165,4.0,-999.0,-999,-99.99,,,-99.99,,2013-04-29 10:53:00,
2013-04-29 05:00:00,55.0,-99.9,-100.00,ESE,114,3.0,-999.0,-999,-99.99,,,-99.99,,2013-04-29 11:00:00,
2013-04-29 05:52:00,55.0,-99.9,-100.00,ESE,114,3.0,-999.0,-999,-99.99,,,-99.99,,2013-04-29 11:52:00,
2013-04-29 06:00:00,54.0,-99.9,-100.00,SSE,164,5.0,-999.0,-999,-99.99,,,-99.99,,2013-04-29 12:00:00,
2013-04-29 06:52:00,54.0,-99.9,-100.00,SSE,164,5.0,-999.0,-999,-99.99,,,-99.99,,2013-04-29 12:52:00,
2013-04-29 07:00:00,55.0,-99.9,-100.00,South,183,4.0,-999.0,-999,-99.99,,,-99.99,,2013-04-29 13:00:00,
2013-04-29 07:52:00,55.0,-99.9,-100.00,South,183,4.0,-999.0,-999,-99.99,,,-99.99,,2013-04-29 13:52:00,
2013-04-29 08:00:00,60.0,-99.9,-100.00,SSW,204,2.0,-999.0,-999,-99.99,,,-99.99,,2013-04-29 14:00:00,
2013-04-29 08:52:00,60.0,-99.9,-100.00,SSW,204,2.0,-999.0,-999,-99.99,,,-99.99,,2013-04-29 14:52:00,
2013-04-29 09:00:00,66.0,-99.9,-100.00,SSW,197,4.0,-999.0,-999,-99.99,,,-99.99,,2013-04-29 15:00:00,
2013-04-29 09:53:00,66.0,-99.9,-100.00,SSW,197,4.0,-999.0,-999,-99.99,,,-99.99,,2013-04-29 15:53:00,
2013-04-29 10:00:00,72.0,-99.9,-100.00,NNW,343,4.0,-999.0,-999,-99.99,,,-99.99,,2013-04-29 16:00:00,
2013-04-29 10:53:00,72.0,-99.9,-100.00,NNW,343,4.0,-999.0,-999,-99.99,,,-99.99,,2013-04-29 16:53:00,
2013-04-29 11:00:00,75.0,-99.9,-100.00,West,275,4.0,-999.0,-999,-99.99,,,-99.99,,2013-04-29 17:00:00,
2013-04-29 11:52:00,75.0,-99.9,-100.00,West,275,4.0,-999.0,-999,-99.99,,,-99.99,,2013-04-29 17:52:00,
2013-04-29 12:00:00,77.0,-99.9,-100.00,NW,312,6.0,-999.0,-999,-99.99,,,-99.99,,2013-04-29 18:00:00,
2013-04-29 12:52:00,77.0,-99.9,-100.00,NW,312,6.0,-999.0,-999,-99.99,,,-99.99,,2013-04-29 18:52:00,
2013-04-29 13:00:00,77.0,-99.9,-100.00,NNW,327,7.0,-999.0,-999,-99.99,,,-99.99,,2013-04-29 19:00:00,
2013-04-29 13:52:00,77.0,-99.9,-100.00,NNW,327,7.0,-999.0,-999,-99.99,,,-99.99,,2013-04-29 19:52:00,
2013-04-29 14:00:00,80.0,-99.9,-100.00,ESE,110,3.0,-999.0,-999,-99.99,,,-99.99,,2013-04-29 20:00:00,
2013-04-29 14:52:00,80.0,-99.9,-100.00,ESE,110,3.0,-999.0,-999,-99.99,,,-99.99,,2013-04-29 20:52:00,
2013-04-29 15:00:00,81.0,-99.9,-100.00,NW,304,7.0,-999.0,-999,-99.99,,,-99.99,,2013-04-29 21:00:00,
2013-04-29 15:53:00,81.0,-99.9,-100.00,NW,304,7.0,-999.0,-999,-99.99,,,-99.99,,2013-04-29 21:53:00,
2013-04-29 16:00:00,79.0,-99.9,-100.00,NW,326,4.0,-999.0,-999,-99.99,,,-99.99,,2013-04-29 22:00:00,
2013-04-29 16:53:00,79.0,-99.9,-100.00,NW,326,4.0,-999.0,-999,-99.99,,,-99.99,,2013-04-29 22:53:00,
2013-04-29 17:00:00,79.0,-99.9,-100.00,SW,230,3.0,-999.0,-999,-99.99,,,-99.99,,2013-04-29 23:00:00,
2013-04-29 17:53:00,79.0,-99.9,-100.00,SW,230,3.0,-999.0,-999,-99.99,,,-99.99,,2013-04-29 23:53:00,
2013-04-29 19:00:00,76.0,-99.9,-100.00,WNW,294,2.0,-999.0,-999,-99.99,,,-99.99,,2013-04-30 01:00:00,
2013-04-29 19:52:00,76.0,-99.9,-100.00,WNW,294,2.0,-999.0,-999,-99.99,,,-99.99,,2013-04-30 01:52:00,